sensor_id;sensor_type;location;lat;lon;timestamp;pressure;altitude;pressure_sealevel;temperature;humidity
46291;BME280;32023;44.444;26.006;2022-12-18T00:00:29;101129.66;;;4.23;96.12
46291;BME280;32023;44.444;26.006;2022-12-18T00:03:17;101130.47;;;4.17;96.05
46291;BME280;32023;44.444;26.006;2022-12-18T00:05:50;101130.03;;;4.14;96.26
46291;BME280;32023;44.444;26.006;2022-12-18T00:08:42;101147.81;;;4.10;96.41
46291;BME280;32023;44.444;26.006;2022-12-18T00:11:21;101163.53;;;4.08;96.90
46291;BME280;32023;44.444;26.006;2022-12-18T00:13:53;101161.84;;;4.07;96.37
46291;BME280;32023;44.444;26.006;2022-12-18T00:16:28;101161.44;;;4.10;96.92
46291;BME280;32023;44.444;26.006;2022-12-18T00:19:08;101161.63;;;4.08;96.67
46291;BME280;32023;44.444;26.006;2022-12-18T00:21:35;101171.50;;;4.09;96.01
46291;BME280;32023;44.444;26.006;2022-12-18T00:24:25;101172.34;;;4.10;95.96
46291;BME280;32023;44.444;26.006;2022-12-18T00:27:01;101176.34;;;4.14;95.67
46291;BME280;32023;44.444;26.006;2022-12-18T00:29:42;101193.41;;;4.22;96.11
46291;BME280;32023;44.444;26.006;2022-12-18T00:32:14;101188.34;;;4.19;95.50
46291;BME280;32023;44.444;26.006;2022-12-18T00:37:44;101205.59;;;4.26;94.55
46291;BME280;32023;44.444;26.006;2022-12-18T00:40:50;101216.28;;;4.28;94.16
46291;BME280;32023;44.444;26.006;2022-12-18T00:43:37;101212.13;;;4.32;94.12
46291;BME280;32023;44.444;26.006;2022-12-18T00:46:21;101210.28;;;4.39;94.04
46291;BME280;32023;44.444;26.006;2022-12-18T00:49:20;101210.28;;;4.39;93.62
46291;BME280;32023;44.444;26.006;2022-12-18T00:52:21;101206.13;;;4.43;93.28
46291;BME280;32023;44.444;26.006;2022-12-18T00:54:53;101218.06;;;4.42;92.40
46291;BME280;32023;44.444;26.006;2022-12-18T00:57:41;101224.19;;;4.44;92.42
46291;BME280;32023;44.444;26.006;2022-12-18T01:00:27;101233.66;;;4.48;92.27
46291;BME280;32023;44.444;26.006;2022-12-18T01:06:20;101226.75;;;4.52;91.89
46291;BME280;32023;44.444;26.006;2022-12-18T01:09:01;101241.03;;;4.54;91.92
46291;BME280;32023;44.444;26.006;2022-12-18T01:11:34;101225.50;;;4.55;91.23
46291;BME280;32023;44.444;26.006;2022-12-18T01:14:06;101235.16;;;4.57;90.76
46291;BME280;32023;44.444;26.006;2022-12-18T01:16:36;101236.41;;;4.55;91.06
46291;BME280;32023;44.444;26.006;2022-12-18T01:19:05;101247.03;;;4.43;90.45
46291;BME280;32023;44.444;26.006;2022-12-18T01:21:32;101247.63;;;4.38;90.25
46291;BME280;32023;44.444;26.006;2022-12-18T01:23:58;101256.59;;;4.32;90.58
46291;BME280;32023;44.444;26.006;2022-12-18T01:26:27;101259.78;;;4.36;90.59
46291;BME280;32023;44.444;26.006;2022-12-18T01:28:58;101256.78;;;4.31;90.16
46291;BME280;32023;44.444;26.006;2022-12-18T01:31:31;101259.91;;;4.28;90.25
46291;BME280;32023;44.444;26.006;2022-12-18T01:34:01;101258.63;;;4.24;90.74
46291;BME280;32023;44.444;26.006;2022-12-18T01:36:32;101261.16;;;4.25;90.96
46291;BME280;32023;44.444;26.006;2022-12-18T01:39:04;101268.22;;;4.20;90.95
46291;BME280;32023;44.444;26.006;2022-12-18T01:41:32;101259.28;;;4.26;90.64
46291;BME280;32023;44.444;26.006;2022-12-18T01:47:44;101266.22;;;4.28;90.67
46291;BME280;32023;44.444;26.006;2022-12-18T01:50:19;101272.91;;;4.26;90.21
46291;BME280;32023;44.444;26.006;2022-12-18T01:53:00;101289.28;;;4.26;90.38
46291;BME280;32023;44.444;26.006;2022-12-18T01:55:29;101298.22;;;4.20;90.28
46291;BME280;32023;44.444;26.006;2022-12-18T01:57:59;101285.66;;;4.19;89.97
46291;BME280;32023;44.444;26.006;2022-12-18T02:00:27;101291.53;;;4.22;89.83
46291;BME280;32023;44.444;26.006;2022-12-18T02:02:54;101296.59;;;4.25;90.07
46291;BME280;32023;44.444;26.006;2022-12-18T02:08:22;101300.81;;;4.28;89.68
46291;BME280;32023;44.444;26.006;2022-12-18T02:11:22;101311.47;;;4.23;89.60
46291;BME280;32023;44.444;26.006;2022-12-18T02:28:04;101326.38;;;4.27;88.77
46291;BME280;32023;44.444;26.006;2022-12-18T02:30:34;101344.81;;;4.25;88.93
46291;BME280;32023;44.444;26.006;2022-12-18T02:33:06;101330.56;;;4.23;88.51
46291;BME280;32023;44.444;26.006;2022-12-18T02:35:34;101332.63;;;4.21;89.14
46291;BME280;32023;44.444;26.006;2022-12-18T02:38:10;101343.53;;;4.21;88.87
46291;BME280;32023;44.444;26.006;2022-12-18T02:40:41;101341.81;;;4.20;89.02
46291;BME280;32023;44.444;26.006;2022-12-18T02:43:14;101347.28;;;4.20;89.35
46291;BME280;32023;44.444;26.006;2022-12-18T02:45:56;101343.53;;;4.21;89.08
46291;BME280;32023;44.444;26.006;2022-12-18T02:48:33;101349.81;;;4.21;88.59
46291;BME280;32023;44.444;26.006;2022-12-18T02:51:14;101362.03;;;4.25;89.06
46291;BME280;32023;44.444;26.006;2022-12-18T02:54:27;101357.81;;;4.23;89.19
46291;BME280;32023;44.444;26.006;2022-12-18T02:57:15;101369.09;;;4.20;88.67
46291;BME280;32023;44.444;26.006;2022-12-18T03:00:13;101381.69;;;4.21;88.76
46291;BME280;32023;44.444;26.006;2022-12-18T03:03:06;101393.63;;;4.20;88.89
46291;BME280;32023;44.444;26.006;2022-12-18T03:06:01;101398.03;;;4.21;88.75
46291;BME280;32023;44.444;26.006;2022-12-18T03:08:38;101407.06;;;4.21;89.46
46291;BME280;32023;44.444;26.006;2022-12-18T03:11:08;101408.56;;;4.24;89.81
46291;BME280;32023;44.444;26.006;2022-12-18T03:16:12;101416.31;;;4.06;89.68
46291;BME280;32023;44.444;26.006;2022-12-18T03:21:10;101420.06;;;4.05;90.98
46291;BME280;32023;44.444;26.006;2022-12-18T03:23:43;101426.56;;;4.04;91.02
46291;BME280;32023;44.444;26.006;2022-12-18T03:26:13;101430.50;;;4.01;91.23
46291;BME280;32023;44.444;26.006;2022-12-18T03:28:47;101436.41;;;4.05;91.78
46291;BME280;32023;44.444;26.006;2022-12-18T03:31:16;101439.81;;;4.07;91.38
46291;BME280;32023;44.444;26.006;2022-12-18T03:36:21;101432.94;;;4.11;91.94
46291;BME280;32023;44.444;26.006;2022-12-18T03:38:48;101430.63;;;4.08;92.21
46291;BME280;32023;44.444;26.006;2022-12-18T03:41:44;101431.63;;;4.07;93.02
46291;BME280;32023;44.444;26.006;2022-12-18T03:47:15;101439.16;;;4.05;94.22
46291;BME280;32023;44.444;26.006;2022-12-18T03:52:39;101447.13;;;4.06;94.09
46291;BME280;32023;44.444;26.006;2022-12-18T03:55:09;101457.88;;;4.08;94.48
46291;BME280;32023;44.444;26.006;2022-12-18T03:57:37;101467.91;;;4.07;94.59
46291;BME280;32023;44.444;26.006;2022-12-18T04:00:13;101472.22;;;4.02;95.22
46291;BME280;32023;44.444;26.006;2022-12-18T04:02:51;101466.22;;;4.06;94.86
46291;BME280;32023;44.444;26.006;2022-12-18T04:05:19;101475.25;;;4.07;95.33
46291;BME280;32023;44.444;26.006;2022-12-18T04:07:50;101478.44;;;4.10;95.09
46291;BME280;32023;44.444;26.006;2022-12-18T04:10:18;101480.31;;;4.10;95.18
46291;BME280;32023;44.444;26.006;2022-12-18T04:12:50;101485.59;;;4.11;95.66
46291;BME280;32023;44.444;26.006;2022-12-18T04:15:17;101479.75;;;4.14;95.46
46291;BME280;32023;44.444;26.006;2022-12-18T04:17:50;101498.44;;;4.17;94.96
46291;BME280;32023;44.444;26.006;2022-12-18T04:20:17;101496.66;;;4.10;95.02
46291;BME280;32023;44.444;26.006;2022-12-18T04:22:43;101497.13;;;4.13;95.20
46291;BME280;32023;44.444;26.006;2022-12-18T04:25:10;101502.00;;;4.18;95.39
46291;BME280;32023;44.444;26.006;2022-12-18T04:27:36;101508.09;;;4.20;95.38
46291;BME280;32023;44.444;26.006;2022-12-18T04:30:14;101519.41;;;4.17;95.60
46291;BME280;32023;44.444;26.006;2022-12-18T04:32:41;101524.84;;;4.17;95.21
46291;BME280;32023;44.444;26.006;2022-12-18T04:35:08;101531.06;;;4.25;95.62
46291;BME280;32023;44.444;26.006;2022-12-18T04:37:38;101536.66;;;4.38;95.46
46291;BME280;32023;44.444;26.006;2022-12-18T04:40:07;101538.06;;;4.49;95.18
46291;BME280;32023;44.444;26.006;2022-12-18T04:42:34;101534.38;;;4.57;94.87
46291;BME280;32023;44.444;26.006;2022-12-18T04:45:14;101543.47;;;4.64;95.18
46291;BME280;32023;44.444;26.006;2022-12-18T04:47:47;101547.13;;;4.71;94.75
46291;BME280;32023;44.444;26.006;2022-12-18T04:50:17;101549.75;;;4.79;94.54
46291;BME280;32023;44.444;26.006;2022-12-18T04:52:43;101550.84;;;4.84;94.57
46291;BME280;32023;44.444;26.006;2022-12-18T04:55:12;101548.38;;;4.90;93.74
46291;BME280;32023;44.444;26.006;2022-12-18T04:57:38;101549.03;;;4.92;93.61
46291;BME280;32023;44.444;26.006;2022-12-18T05:00:05;101550.31;;;4.96;93.66
46291;BME280;32023;44.444;26.006;2022-12-18T05:02:32;101560.03;;;4.98;93.50
46291;BME280;32023;44.444;26.006;2022-12-18T05:05:01;101567.59;;;5.03;92.93
46291;BME280;32023;44.444;26.006;2022-12-18T05:07:32;101564.69;;;5.04;93.02
46291;BME280;32023;44.444;26.006;2022-12-18T05:10:02;101572.72;;;5.06;92.88
46291;BME280;32023;44.444;26.006;2022-12-18T05:12:31;101576.91;;;5.08;92.33
46291;BME280;32023;44.444;26.006;2022-12-18T05:14:58;101590.41;;;5.10;92.32
46291;BME280;32023;44.444;26.006;2022-12-18T05:17:29;101590.00;;;5.13;92.11
46291;BME280;32023;44.444;26.006;2022-12-18T05:20:02;101589.16;;;5.12;92.38
46291;BME280;32023;44.444;26.006;2022-12-18T05:22:31;101592.72;;;5.13;91.77
46291;BME280;32023;44.444;26.006;2022-12-18T05:25:06;101604.50;;;5.13;91.59
46291;BME280;32023;44.444;26.006;2022-12-18T05:27:41;101616.22;;;5.14;91.55
46291;BME280;32023;44.444;26.006;2022-12-18T05:30:17;101612.47;;;5.15;91.73
46291;BME280;32023;44.444;26.006;2022-12-18T05:32:43;101612.28;;;5.16;91.17
46291;BME280;32023;44.444;26.006;2022-12-18T05:35:17;101618.59;;;5.17;91.29
46291;BME280;32023;44.444;26.006;2022-12-18T05:37:43;101632.44;;;5.15;91.39
46291;BME280;32023;44.444;26.006;2022-12-18T05:40:15;101620.28;;;5.18;91.13
46291;BME280;32023;44.444;26.006;2022-12-18T05:42:42;101623.22;;;5.16;90.50
46291;BME280;32023;44.444;26.006;2022-12-18T05:45:09;101627.47;;;5.04;90.72
46291;BME280;32023;44.444;26.006;2022-12-18T05:47:38;101622.34;;;4.95;90.67
46291;BME280;32023;44.444;26.006;2022-12-18T05:50:05;101627.31;;;4.91;90.74
46291;BME280;32023;44.444;26.006;2022-12-18T05:52:38;101636.09;;;4.87;91.19
46291;BME280;32023;44.444;26.006;2022-12-18T05:55:10;101645.03;;;4.80;91.26
46291;BME280;32023;44.444;26.006;2022-12-18T05:57:42;101643.00;;;4.68;91.64
46291;BME280;32023;44.444;26.006;2022-12-18T06:00:25;101644.88;;;4.67;91.82
46291;BME280;32023;44.444;26.006;2022-12-18T06:03:12;101653.81;;;4.61;92.77
46291;BME280;32023;44.444;26.006;2022-12-18T06:05:46;101649.88;;;4.64;92.96
46291;BME280;32023;44.444;26.006;2022-12-18T06:08:18;101652.41;;;4.65;93.16
46291;BME280;32023;44.444;26.006;2022-12-18T06:10:57;101666.41;;;4.62;92.88
46291;BME280;32023;44.444;26.006;2022-12-18T06:13:29;101671.22;;;4.60;93.25
46291;BME280;32023;44.444;26.006;2022-12-18T06:16:01;101675.91;;;4.66;93.11
46291;BME280;32023;44.444;26.006;2022-12-18T06:18:35;101683.34;;;4.72;93.14
46291;BME280;32023;44.444;26.006;2022-12-18T06:21:10;101686.34;;;4.77;93.60
46291;BME280;32023;44.444;26.006;2022-12-18T06:24:07;101693.03;;;4.75;93.00
46291;BME280;32023;44.444;26.006;2022-12-18T06:26:43;101696.97;;;4.72;92.65
46291;BME280;32023;44.444;26.006;2022-12-18T06:29:10;101697.34;;;4.69;93.11
46291;BME280;32023;44.444;26.006;2022-12-18T06:31:36;101700.75;;;4.71;92.66
46291;BME280;32023;44.444;26.006;2022-12-18T06:34:06;101705.44;;;4.77;92.65
46291;BME280;32023;44.444;26.006;2022-12-18T06:36:56;101708.56;;;4.74;92.32
46291;BME280;32023;44.444;26.006;2022-12-18T06:39:50;101731.50;;;4.65;92.74
46291;BME280;32023;44.444;26.006;2022-12-18T06:42:19;101731.97;;;4.54;92.26
46291;BME280;32023;44.444;26.006;2022-12-18T06:47:57;101747.28;;;4.26;94.11
46291;BME280;32023;44.444;26.006;2022-12-18T06:50:48;101752.03;;;4.24;94.11
46291;BME280;32023;44.444;26.006;2022-12-18T06:53:18;101763.31;;;4.21;94.91
46291;BME280;32023;44.444;26.006;2022-12-18T06:55:46;101766.75;;;4.23;94.51
46291;BME280;32023;44.444;26.006;2022-12-18T06:58:12;101766.06;;;4.21;95.07
46291;BME280;32023;44.444;26.006;2022-12-18T07:00:39;101776.31;;;4.19;94.60
46291;BME280;32023;44.444;26.006;2022-12-18T07:03:14;101780.44;;;4.15;95.24
46291;BME280;32023;44.444;26.006;2022-12-18T07:05:52;101779.47;;;4.08;94.87
46291;BME280;32023;44.444;26.006;2022-12-18T07:08:34;101784.25;;;4.06;95.26
46291;BME280;32023;44.444;26.006;2022-12-18T07:11:13;101787.13;;;4.04;95.35
46291;BME280;32023;44.444;26.006;2022-12-18T07:13:46;101782.53;;;4.05;95.27
46291;BME280;32023;44.444;26.006;2022-12-18T07:16:17;101791.69;;;4.12;95.01
46291;BME280;32023;44.444;26.006;2022-12-18T07:18:49;101800.16;;;4.17;95.31
46291;BME280;32023;44.444;26.006;2022-12-18T07:21:22;101806.16;;;4.12;94.72
46291;BME280;32023;44.444;26.006;2022-12-18T07:23:50;101817.25;;;4.11;95.24
46291;BME280;32023;44.444;26.006;2022-12-18T07:26:18;101819.69;;;4.06;95.48
46291;BME280;32023;44.444;26.006;2022-12-18T07:28:45;101820.69;;;4.05;95.40
46291;BME280;32023;44.444;26.006;2022-12-18T07:31:15;101821.38;;;4.07;95.07
46291;BME280;32023;44.444;26.006;2022-12-18T07:33:41;101831.00;;;3.95;95.71
46291;BME280;32023;44.444;26.006;2022-12-18T07:36:11;101846.69;;;3.93;95.47
46291;BME280;32023;44.444;26.006;2022-12-18T07:38:46;101837.66;;;3.92;96.11
46291;BME280;32023;44.444;26.006;2022-12-18T07:41:18;101837.47;;;3.94;96.17
46291;BME280;32023;44.444;26.006;2022-12-18T07:43:47;101843.66;;;3.87;95.86
46291;BME280;32023;44.444;26.006;2022-12-18T07:46:19;101857.59;;;3.93;95.98
46291;BME280;32023;44.444;26.006;2022-12-18T07:48:47;101862.19;;;3.92;96.45
46291;BME280;32023;44.444;26.006;2022-12-18T07:51:17;101864.91;;;3.92;96.58
46291;BME280;32023;44.444;26.006;2022-12-18T07:53:43;101865.94;;;3.91;96.26
46291;BME280;32023;44.444;26.006;2022-12-18T07:56:15;101876.22;;;3.81;96.63
46291;BME280;32023;44.444;26.006;2022-12-18T07:58:42;101884.94;;;3.76;96.32
46291;BME280;32023;44.444;26.006;2022-12-18T08:01:16;101884.41;;;3.81;97.03
46291;BME280;32023;44.444;26.006;2022-12-18T08:03:54;101890.72;;;3.73;96.96
46291;BME280;32023;44.444;26.006;2022-12-18T08:06:23;101901.63;;;3.73;96.55
46291;BME280;32023;44.444;26.006;2022-12-18T08:08:55;101911.84;;;3.71;96.47
46291;BME280;32023;44.444;26.006;2022-12-18T08:11:31;101921.84;;;3.79;96.94
46291;BME280;32023;44.444;26.006;2022-12-18T08:14:01;101923.56;;;3.80;97.38
46291;BME280;32023;44.444;26.006;2022-12-18T08:16:28;101935.97;;;3.82;96.83
46291;BME280;32023;44.444;26.006;2022-12-18T08:19:07;101933.47;;;3.73;96.29
46291;BME280;32023;44.444;26.006;2022-12-18T08:21:36;101943.88;;;3.69;96.22
46291;BME280;32023;44.444;26.006;2022-12-18T08:24:03;101944.88;;;3.68;96.23
46291;BME280;32023;44.444;26.006;2022-12-18T08:26:32;101949.63;;;3.74;96.29
46291;BME280;32023;44.444;26.006;2022-12-18T08:29:00;101944.34;;;3.81;96.80
46291;BME280;32023;44.444;26.006;2022-12-18T08:31:30;101947.56;;;3.84;96.45
46291;BME280;32023;44.444;26.006;2022-12-18T08:33:59;101950.94;;;3.86;96.01
46291;BME280;32023;44.444;26.006;2022-12-18T08:36:31;101951.25;;;3.92;95.75
46291;BME280;32023;44.444;26.006;2022-12-18T08:39:03;101952.25;;;3.99;96.01
46291;BME280;32023;44.444;26.006;2022-12-18T08:41:29;101954.59;;;4.02;95.59
46291;BME280;32023;44.444;26.006;2022-12-18T08:43:59;101951.84;;;4.10;95.98
46291;BME280;32023;44.444;26.006;2022-12-18T08:49:27;101950.59;;;4.20;95.68
46291;BME280;32023;44.444;26.006;2022-12-18T08:52:12;101957.38;;;4.24;95.25
46291;BME280;32023;44.444;26.006;2022-12-18T08:54:57;101967.38;;;4.32;95.31
46291;BME280;32023;44.444;26.006;2022-12-18T08:57:40;101961.22;;;4.38;94.67
46291;BME280;32023;44.444;26.006;2022-12-18T09:00:26;101958.31;;;4.40;94.04
46291;BME280;32023;44.444;26.006;2022-12-18T09:03:25;101960.63;;;4.51;94.36
46291;BME280;32023;44.444;26.006;2022-12-18T09:06:06;101950.13;;;4.62;93.44
46291;BME280;32023;44.444;26.006;2022-12-18T09:26:03;101947.53;;;4.69;83.67
46291;BME280;32023;44.444;26.006;2022-12-18T09:29:10;101949.13;;;4.63;83.96
46291;BME280;32023;44.444;26.006;2022-12-18T09:31:39;101949.75;;;4.65;83.96
46291;BME280;32023;44.444;26.006;2022-12-18T09:35:11;101950.06;;;4.70;83.17
46291;BME280;32023;44.444;26.006;2022-12-18T09:38:06;101932.97;;;4.76;83.15
46291;BME280;32023;44.444;26.006;2022-12-18T09:40:40;101943.75;;;4.70;79.32
46291;BME280;32023;44.444;26.006;2022-12-18T09:43:15;101943.16;;;4.60;77.81
46291;BME280;32023;44.444;26.006;2022-12-18T09:46:15;101947.03;;;4.65;78.49
46291;BME280;32023;44.444;26.006;2022-12-18T09:48:44;101954.50;;;4.71;78.26
46291;BME280;32023;44.444;26.006;2022-12-18T09:51:26;101942.38;;;4.74;77.75
46291;BME280;32023;44.444;26.006;2022-12-18T09:54:03;101954.50;;;4.71;76.23
46291;BME280;32023;44.444;26.006;2022-12-18T09:56:37;101948.75;;;4.66;76.01
46291;BME280;32023;44.444;26.006;2022-12-18T09:59:39;101955.28;;;4.57;75.37
46291;BME280;32023;44.444;26.006;2022-12-18T10:02:32;101960.69;;;4.65;76.10
46291;BME280;32023;44.444;26.006;2022-12-18T10:05:06;101976.63;;;4.76;76.45
46291;BME280;32023;44.444;26.006;2022-12-18T10:10:38;101959.72;;;4.81;75.61
46291;BME280;32023;44.444;26.006;2022-12-18T10:13:26;101965.44;;;4.71;73.73
46291;BME280;32023;44.444;26.006;2022-12-18T10:16:22;101976.03;;;4.66;73.50
46291;BME280;32023;44.444;26.006;2022-12-18T10:21:36;101985.22;;;4.43;74.12
46291;BME280;32023;44.444;26.006;2022-12-18T10:24:27;101983.38;;;4.35;73.48
46291;BME280;32023;44.444;26.006;2022-12-18T10:27:14;101982.03;;;4.31;73.24
46291;BME280;32023;44.444;26.006;2022-12-18T10:29:45;101990.78;;;4.26;74.49
46291;BME280;32023;44.444;26.006;2022-12-18T10:32:23;101991.59;;;4.27;76.12
46291;BME280;32023;44.444;26.006;2022-12-18T10:34:58;101992.47;;;4.27;76.38
46291;BME280;32023;44.444;26.006;2022-12-18T10:40:26;101974.06;;;4.29;76.86
46291;BME280;32023;44.444;26.006;2022-12-18T10:43:13;101974.59;;;4.25;77.10
46291;BME280;32023;44.444;26.006;2022-12-18T10:45:41;101978.88;;;4.19;76.82
46291;BME280;32023;44.444;26.006;2022-12-18T10:48:31;101993.19;;;4.21;77.12
46291;BME280;32023;44.444;26.006;2022-12-18T10:50:58;101998.81;;;4.20;77.24
46291;BME280;32023;44.444;26.006;2022-12-18T10:53:29;102016.72;;;4.22;75.79
46291;BME280;32023;44.444;26.006;2022-12-18T10:55:58;102009.22;;;4.16;75.78
46291;BME280;32023;44.444;26.006;2022-12-18T10:58:28;102002.91;;;4.16;76.26
46291;BME280;32023;44.444;26.006;2022-12-18T11:01:21;102006.97;;;4.20;75.74
46291;BME280;32023;44.444;26.006;2022-12-18T11:06:22;102010.47;;;4.06;75.68
46291;BME280;32023;44.444;26.006;2022-12-18T11:09:01;102013.94;;;3.92;75.82
46291;BME280;32023;44.444;26.006;2022-12-18T11:11:32;102017.84;;;3.89;76.36
46291;BME280;32023;44.444;26.006;2022-12-18T11:14:05;102008.50;;;3.92;76.90
46291;BME280;32023;44.444;26.006;2022-12-18T11:16:47;102016.47;;;3.93;77.48
46291;BME280;32023;44.444;26.006;2022-12-18T11:19:34;102031.03;;;3.77;76.75
46291;BME280;32023;44.444;26.006;2022-12-18T11:22:50;102035.44;;;3.70;76.28
46291;BME280;32023;44.444;26.006;2022-12-18T11:25:00;102030.56;;;3.58;76.73
46291;BME280;32023;44.444;26.006;2022-12-18T11:27:27;102029.00;;;3.55;77.32
46291;BME280;32023;44.444;26.006;2022-12-18T11:33:23;102041.31;;;3.43;76.65
46291;BME280;32023;44.444;26.006;2022-12-18T11:35:57;102034.66;;;3.54;77.79
46291;BME280;32023;44.444;26.006;2022-12-18T11:38:40;102031.72;;;3.55;76.71
46291;BME280;32023;44.444;26.006;2022-12-18T11:44:57;102032.78;;;3.54;76.73
46291;BME280;32023;44.444;26.006;2022-12-18T11:51:11;102035.16;;;3.49;77.46
46291;BME280;32023;44.444;26.006;2022-12-18T11:53:52;102036.50;;;3.53;77.07
46291;BME280;32023;44.444;26.006;2022-12-18T12:20:06;102067.13;;;3.71;77.09
46291;BME280;32023;44.444;26.006;2022-12-18T12:25:36;102067.81;;;3.73;76.97
46291;BME280;32023;44.444;26.006;2022-12-18T12:34:05;102079.72;;;3.72;76.82
46291;BME280;32023;44.444;26.006;2022-12-18T12:39:20;102092.97;;;3.83;76.60
46291;BME280;32023;44.444;26.006;2022-12-18T12:41:51;102088.19;;;3.85;77.01
46291;BME280;32023;44.444;26.006;2022-12-18T12:44:44;102088.25;;;3.77;76.78
46291;BME280;32023;44.444;26.006;2022-12-18T12:47:50;102094.69;;;3.76;76.69
46291;BME280;32023;44.444;26.006;2022-12-18T12:50:17;102108.31;;;3.76;77.12
46291;BME280;32023;44.444;26.006;2022-12-18T12:52:54;102114.94;;;3.82;77.14
46291;BME280;32023;44.444;26.006;2022-12-18T12:55:24;102107.63;;;3.82;77.28
46291;BME280;32023;44.444;26.006;2022-12-18T12:58:08;102111.03;;;3.76;77.09
46291;BME280;32023;44.444;26.006;2022-12-18T13:03:58;102121.94;;;3.76;77.21
46291;BME280;32023;44.444;26.006;2022-12-18T13:09:07;102132.84;;;3.84;77.49
46291;BME280;32023;44.444;26.006;2022-12-18T13:11:41;102133.84;;;3.83;77.16
46291;BME280;32023;44.444;26.006;2022-12-18T13:14:39;102133.84;;;3.83;77.15
46291;BME280;32023;44.444;26.006;2022-12-18T13:17:17;102135.56;;;3.84;77.09
46291;BME280;32023;44.444;26.006;2022-12-18T13:20:08;102146.97;;;3.88;77.37
46291;BME280;32023;44.444;26.006;2022-12-18T13:22:39;102146.97;;;3.88;76.75
46291;BME280;32023;44.444;26.006;2022-12-18T13:28:16;102158.03;;;3.78;77.00
46291;BME280;32023;44.444;26.006;2022-12-18T13:30:44;102149.53;;;3.73;77.33
46291;BME280;32023;44.444;26.006;2022-12-18T13:43:47;102179.50;;;3.73;78.02
46291;BME280;32023;44.444;26.006;2022-12-18T13:46:21;102180.00;;;3.77;78.24
46291;BME280;32023;44.444;26.006;2022-12-18T13:49:03;102190.91;;;3.77;78.08
46291;BME280;32023;44.444;26.006;2022-12-18T13:51:34;102188.50;;;3.74;78.34
46291;BME280;32023;44.444;26.006;2022-12-18T13:54:05;102190.91;;;3.77;78.18
46291;BME280;32023;44.444;26.006;2022-12-18T13:56:33;102191.22;;;3.74;78.29
46291;BME280;32023;44.444;26.006;2022-12-18T14:01:54;102208.78;;;3.71;78.59
46291;BME280;32023;44.444;26.006;2022-12-18T14:04:34;102210.97;;;3.60;78.28
46291;BME280;32023;44.444;26.006;2022-12-18T14:07:05;102219.66;;;3.55;78.19
46291;BME280;32023;44.444;26.006;2022-12-18T14:09:37;102209.78;;;3.46;78.63
46291;BME280;32023;44.444;26.006;2022-12-18T14:12:06;102211.63;;;3.37;79.30
46291;BME280;32023;44.444;26.006;2022-12-18T14:14:52;102215.56;;;3.35;79.55
46291;BME280;32023;44.444;26.006;2022-12-18T14:17:19;102219.66;;;3.39;79.68
46291;BME280;32023;44.444;26.006;2022-12-18T14:19:47;102218.28;;;3.43;80.11
46291;BME280;32023;44.444;26.006;2022-12-18T14:22:17;102221.88;;;3.44;80.23
46291;BME280;32023;44.444;26.006;2022-12-18T14:24:47;102222.03;;;3.42;80.41
46291;BME280;32023;44.444;26.006;2022-12-18T14:27:27;102233.06;;;3.32;80.53
46291;BME280;32023;44.444;26.006;2022-12-18T14:29:54;102248.72;;;3.30;80.13
46291;BME280;32023;44.444;26.006;2022-12-18T14:32:21;102239.53;;;3.31;80.95
46291;BME280;32023;44.444;26.006;2022-12-18T14:34:55;102257.78;;;3.39;80.65
46291;BME280;32023;44.444;26.006;2022-12-18T14:37:24;102267.97;;;3.45;80.24
46291;BME280;32023;44.444;26.006;2022-12-18T14:40:03;102261.69;;;3.45;80.76
46291;BME280;32023;44.444;26.006;2022-12-18T14:42:54;102254.03;;;3.48;80.51
46291;BME280;32023;44.444;26.006;2022-12-18T14:45:39;102261.50;;;3.38;80.02
46291;BME280;32023;44.444;26.006;2022-12-18T14:48:39;102262.84;;;3.34;80.11
46291;BME280;32023;44.444;26.006;2022-12-18T14:51:12;102271.72;;;3.36;80.50
46291;BME280;32023;44.444;26.006;2022-12-18T14:53:46;102258.78;;;3.38;80.15
46291;BME280;32023;44.444;26.006;2022-12-18T14:56:25;102260.50;;;3.39;80.13
46291;BME280;32023;44.444;26.006;2022-12-18T14:59:22;102261.84;;;3.35;80.74
46291;BME280;32023;44.444;26.006;2022-12-18T15:04:36;102271.38;;;3.39;80.94
46291;BME280;32023;44.444;26.006;2022-12-18T15:07:19;102277.50;;;3.41;80.75
46291;BME280;32023;44.444;26.006;2022-12-18T15:12:42;102285.34;;;3.36;80.47
46291;BME280;32023;44.444;26.006;2022-12-18T15:18:20;102298.06;;;3.27;80.19
46291;BME280;32023;44.444;26.006;2022-12-18T15:20:54;102288.88;;;3.28;80.97
46291;BME280;32023;44.444;26.006;2022-12-18T15:23:24;102297.72;;;3.30;80.81
46291;BME280;32023;44.444;26.006;2022-12-18T15:29:19;102305.03;;;3.30;80.34
46291;BME280;32023;44.444;26.006;2022-12-18T15:35:32;102317.63;;;3.31;80.66
46291;BME280;32023;44.444;26.006;2022-12-18T15:38:01;102319.00;;;3.27;80.58
46291;BME280;32023;44.444;26.006;2022-12-18T15:43:55;102318.13;;;3.26;80.90
46291;BME280;32023;44.444;26.006;2022-12-18T15:46:31;102321.84;;;3.25;80.91
46291;BME280;32023;44.444;26.006;2022-12-18T15:49:00;102328.34;;;3.24;81.07
46291;BME280;32023;44.444;26.006;2022-12-18T15:51:33;102331.22;;;3.23;80.75
46291;BME280;32023;44.444;26.006;2022-12-18T15:54:09;102338.00;;;3.19;81.47
46291;BME280;32023;44.444;26.006;2022-12-18T15:56:49;102342.59;;;3.18;81.04
46291;BME280;32023;44.444;26.006;2022-12-18T15:59:37;102343.78;;;3.16;81.14
46291;BME280;32023;44.444;26.006;2022-12-18T16:02:13;102346.66;;;3.14;81.15
46291;BME280;32023;44.444;26.006;2022-12-18T16:04:43;102348.22;;;3.17;81.66
46291;BME280;32023;44.444;26.006;2022-12-18T16:07:14;102354.66;;;3.16;82.04
46291;BME280;32023;44.444;26.006;2022-12-18T16:09:44;102357.22;;;3.17;82.32
46291;BME280;32023;44.444;26.006;2022-12-18T16:12:21;102368.44;;;3.14;82.08
46291;BME280;32023;44.444;26.006;2022-12-18T16:14:51;102369.13;;;3.16;82.66